sensor_id;sensor_type;location;lat;lon;timestamp;pressure;altitude;pressure_sealevel;temperature;humidity
73332;BME280;61560;33.718;73.040;2022-09-27T00:00:07;94391.16;;;24.01;69.54
73332;BME280;61560;33.718;73.040;2022-09-27T00:02:38;94388.59;;;24.03;69.82
73332;BME280;61560;33.718;73.040;2022-09-27T00:05:05;94387.34;;;24.04;69.50
73332;BME280;61560;33.718;73.040;2022-09-27T00:07:32;94383.81;;;24.03;69.45
73332;BME280;61560;33.718;73.040;2022-09-27T00:09:59;94384.53;;;23.98;69.93
73332;BME280;61560;33.718;73.040;2022-09-27T00:12:25;94391.66;;;23.99;69.77
73332;BME280;61560;33.718;73.040;2022-09-27T00:14:54;94394.47;;;23.99;69.87
73332;BME280;61560;33.718;73.040;2022-09-27T00:17:20;94394.94;;;23.98;70.16
73332;BME280;61560;33.718;73.040;2022-09-27T00:19:47;94394.47;;;23.99;69.73
73332;BME280;61560;33.718;73.040;2022-09-27T00:22:13;94392.94;;;23.98;69.64
73332;BME280;61560;33.718;73.040;2022-09-27T00:24:40;94393.94;;;23.95;69.86
73332;BME280;61560;33.718;73.040;2022-09-27T00:27:07;94391.91;;;23.90;69.84
73332;BME280;61560;33.718;73.040;2022-09-27T00:29:33;94403.38;;;23.87;70.08
73332;BME280;61560;33.718;73.040;2022-09-27T00:32:00;94402.84;;;23.88;70.07
73332;BME280;61560;33.718;73.040;2022-09-27T00:34:27;94398.78;;;23.89;70.13
73332;BME280;61560;33.718;73.040;2022-09-27T00:36:54;94404.13;;;23.87;70.49
73332;BME280;61560;33.718;73.040;2022-09-27T00:39:21;94403.84;;;23.85;70.68
73332;BME280;61560;33.718;73.040;2022-09-27T00:41:47;94402.34;;;23.79;70.74
73332;BME280;61560;33.718;73.040;2022-09-27T00:46:58;94406.41;;;23.78;70.52
73332;BME280;61560;33.718;73.040;2022-09-27T00:52:17;94407.66;;;23.71;70.75
73332;BME280;61560;33.718;73.040;2022-09-27T00:54:50;94406.66;;;23.74;70.38
73332;BME280;61560;33.718;73.040;2022-09-27T00:57:21;94409.72;;;23.71;70.87
73332;BME280;61560;33.718;73.040;2022-09-27T00:59:52;94398.53;;;23.71;70.38
73332;BME280;61560;33.718;73.040;2022-09-27T01:02:21;94402.59;;;23.70;70.65
73332;BME280;61560;33.718;73.040;2022-09-27T01:04:48;94398.00;;;23.67;70.77
73332;BME280;61560;33.718;73.040;2022-09-27T01:07:16;94410.47;;;23.71;70.70
73332;BME280;61560;33.718;73.040;2022-09-27T01:09:43;94414.53;;;23.76;71.02
73332;BME280;61560;33.718;73.040;2022-09-27T01:12:38;94414.28;;;23.79;70.70
73332;BME280;61560;33.718;73.040;2022-09-27T01:37:10;94428.28;;;24.23;70.26
73332;BME280;61560;33.718;73.040;2022-09-27T01:40:16;94433.88;;;24.29;69.94
73332;BME280;61560;33.718;73.040;2022-09-27T01:42:48;94434.38;;;24.33;69.85
73332;BME280;61560;33.718;73.040;2022-09-27T01:45:28;94439.94;;;24.50;69.14
73332;BME280;61560;33.718;73.040;2022-09-27T01:48:21;94433.81;;;24.62;69.00
73332;BME280;61560;33.718;73.040;2022-09-27T01:51:15;94446.25;;;24.72;68.80
73332;BME280;61560;33.718;73.040;2022-09-27T01:53:47;94446.75;;;24.82;68.28
73332;BME280;61560;33.718;73.040;2022-09-27T01:56:50;94443.94;;;24.93;67.76
73332;BME280;61560;33.718;73.040;2022-09-27T01:59:36;94450.53;;;25.01;67.80
73332;BME280;61560;33.718;73.040;2022-09-27T02:02:27;94453.00;;;25.15;67.51
73332;BME280;61560;33.718;73.040;2022-09-27T02:05:39;94454.22;;;25.31;67.60
73332;BME280;61560;33.718;73.040;2022-09-27T02:09:10;94456.22;;;25.36;67.52
73332;BME280;61560;33.718;73.040;2022-09-27T02:12:02;94467.16;;;25.45;67.37
73332;BME280;61560;33.718;73.040;2022-09-27T02:14:45;94465.59;;;25.55;67.14
73332;BME280;61560;33.718;73.040;2022-09-27T02:17:24;94467.84;;;25.62;67.28
73332;BME280;61560;33.718;73.040;2022-09-27T02:20:11;94474.19;;;25.68;66.99
73332;BME280;61560;33.718;73.040;2022-09-27T02:26:03;94478.44;;;25.80;66.14
73332;BME280;61560;33.718;73.040;2022-09-27T02:31:43;94483.16;;;26.02;64.68
73332;BME280;61560;33.718;73.040;2022-09-27T02:34:21;94490.28;;;26.09;64.64
73332;BME280;61560;33.718;73.040;2022-09-27T02:36:49;94485.09;;;26.18;64.20
73332;BME280;61560;33.718;73.040;2022-09-27T02:39:19;94487.59;;;26.22;63.42
73332;BME280;61560;33.718;73.040;2022-09-27T02:41:56;94487.03;;;26.29;63.38
73332;BME280;61560;33.718;73.040;2022-09-27T02:44:26;94497.13;;;26.43;63.45
73332;BME280;61560;33.718;73.040;2022-09-27T02:48:03;94489.66;;;26.51;62.92
73332;BME280;61560;33.718;73.040;2022-09-27T02:53:20;94502.88;;;26.86;62.22
73332;BME280;61560;33.718;73.040;2022-09-27T03:05:27;94514.56;;;27.62;60.34
73332;BME280;61560;33.718;73.040;2022-09-27T03:07:56;94512.13;;;27.72;59.73
73332;BME280;61560;33.718;73.040;2022-09-27T03:10:27;94514.59;;;27.99;59.23
73332;BME280;61560;33.718;73.040;2022-09-27T03:12:55;94515.88;;;28.49;57.79
73332;BME280;61560;33.718;73.040;2022-09-27T03:15:23;94520.88;;;29.00;56.16
73332;BME280;61560;33.718;73.040;2022-09-27T03:18:03;94522.13;;;29.31;54.64
73332;BME280;61560;33.718;73.040;2022-09-27T03:20:41;94524.19;;;29.44;54.60
73332;BME280;61560;33.718;73.040;2022-09-27T03:23:16;94523.41;;;29.69;53.61
73332;BME280;61560;33.718;73.040;2022-09-27T03:25:47;94524.44;;;30.06;53.31
73332;BME280;61560;33.718;73.040;2022-09-27T03:28:15;94525.22;;;30.81;51.58
73332;BME280;61560;33.718;73.040;2022-09-27T03:30:46;94523.16;;;31.87;48.71
73332;BME280;61560;33.718;73.040;2022-09-27T03:33:32;94520.84;;;33.25;45.24
73332;BME280;61560;33.718;73.040;2022-09-27T03:36:04;94525.28;;;34.35;42.47
73332;BME280;61560;33.718;73.040;2022-09-27T03:38:31;94529.13;;;35.19;39.88
73332;BME280;61560;33.718;73.040;2022-09-27T03:40:58;94529.66;;;35.67;38.47
73332;BME280;61560;33.718;73.040;2022-09-27T03:43:25;94526.56;;;36.41;37.18
73332;BME280;61560;33.718;73.040;2022-09-27T03:45:56;94531.72;;;37.06;35.85
73332;BME280;61560;33.718;73.040;2022-09-27T03:48:22;94538.63;;;37.48;34.84
73332;BME280;61560;33.718;73.040;2022-09-27T03:50:50;94531.38;;;38.03;33.94
73332;BME280;61560;33.718;73.040;2022-09-27T03:53:17;94541.63;;;38.44;33.30
73332;BME280;61560;33.718;73.040;2022-09-27T03:55:46;94547.34;;;38.73;32.55
73332;BME280;61560;33.718;73.040;2022-09-27T03:58:13;94545.50;;;38.77;32.07
73332;BME280;61560;33.718;73.040;2022-09-27T04:00:40;94538.22;;;38.86;31.89
73332;BME280;61560;33.718;73.040;2022-09-27T05:05:00;94540.47;;;39.98;31.05
73332;BME280;61560;33.718;73.040;2022-09-27T05:07:34;94544.66;;;39.76;31.22
73332;BME280;61560;33.718;73.040;2022-09-27T05:10:05;94538.47;;;39.80;31.48
73332;BME280;61560;33.718;73.040;2022-09-27T05:12:32;94540.13;;;40.04;31.35
73332;BME280;61560;33.718;73.040;2022-09-27T05:15:01;94536.97;;;40.00;31.06
73332;BME280;61560;33.718;73.040;2022-09-27T05:18:05;94530.84;;;39.84;31.17
73332;BME280;61560;33.718;73.040;2022-09-27T05:21:05;94537.69;;;39.79;31.46
73332;BME280;61560;33.718;73.040;2022-09-27T05:23:38;94539.41;;;39.42;31.56
73332;BME280;61560;33.718;73.040;2022-09-27T05:26:06;94535.88;;;39.22;32.38
73332;BME280;61560;33.718;73.040;2022-09-27T05:28:33;94526.81;;;38.76;32.83
73332;BME280;61560;33.718;73.040;2022-09-27T05:31:03;94532.13;;;38.61;33.02
73332;BME280;61560;33.718;73.040;2022-09-27T05:33:32;94530.66;;;38.40;34.03
73332;BME280;61560;33.718;73.040;2022-09-27T05:36:21;94524.44;;;37.96;34.54
73332;BME280;61560;33.718;73.040;2022-09-27T05:38:49;94528.00;;;37.78;35.21
73332;BME280;61560;33.718;73.040;2022-09-27T05:41:19;94519.91;;;37.28;34.56
73332;BME280;61560;33.718;73.040;2022-09-27T05:43:46;94517.84;;;36.92;35.67
73332;BME280;61560;33.718;73.040;2022-09-27T05:46:13;94522.16;;;36.40;36.99
73332;BME280;61560;33.718;73.040;2022-09-27T05:48:42;94514.81;;;36.03;37.91
73332;BME280;61560;33.718;73.040;2022-09-27T05:51:10;94517.06;;;35.87;38.51
73332;BME280;61560;33.718;73.040;2022-09-27T05:53:39;94518.91;;;35.92;38.43
73332;BME280;61560;33.718;73.040;2022-09-27T05:56:13;94507.84;;;35.96;38.06
73332;BME280;61560;33.718;73.040;2022-09-27T05:59:00;94512.38;;;35.65;38.70
73332;BME280;61560;33.718;73.040;2022-09-27T06:01:38;94518.16;;;35.33;39.23
73332;BME280;61560;33.718;73.040;2022-09-27T06:04:32;94506.63;;;35.06;39.62
73332;BME280;61560;33.718;73.040;2022-09-27T06:07:26;94506.72;;;34.67;40.18
73332;BME280;61560;33.718;73.040;2022-09-27T06:09:54;94507.81;;;34.71;41.04
73332;BME280;61560;33.718;73.040;2022-09-27T06:12:23;94508.31;;;34.85;40.06
73332;BME280;61560;33.718;73.040;2022-09-27T06:14:50;94495.13;;;34.72;40.51
73332;BME280;61560;33.718;73.040;2022-09-27T06:17:33;94504.16;;;34.53;40.64
73332;BME280;61560;33.718;73.040;2022-09-27T06:20:07;94496.50;;;34.31;41.06
73332;BME280;61560;33.718;73.040;2022-09-27T06:22:35;94494.25;;;34.22;41.57
73332;BME280;61560;33.718;73.040;2022-09-27T06:25:03;94499.75;;;34.28;41.99
73332;BME280;61560;33.718;73.040;2022-09-27T06:27:35;94496.25;;;34.37;41.97
73332;BME280;61560;33.718;73.040;2022-09-27T06:30:08;94492.81;;;34.38;41.64
73332;BME280;61560;33.718;73.040;2022-09-27T06:32:46;94488.91;;;34.26;42.08
73332;BME280;61560;33.718;73.040;2022-09-27T06:35:34;94493.25;;;33.88;42.49
73332;BME280;61560;33.718;73.040;2022-09-27T06:38:06;94486.09;;;33.71;42.95
73332;BME280;61560;33.718;73.040;2022-09-27T06:40:36;94479.63;;;33.86;43.20
73332;BME280;61560;33.718;73.040;2022-09-27T06:43:28;94474.94;;;33.73;43.19
73332;BME280;61560;33.718;73.040;2022-09-27T06:46:00;94473.88;;;33.54;43.49
73332;BME280;61560;33.718;73.040;2022-09-27T06:49:04;94475.88;;;33.68;44.47
73332;BME280;61560;33.718;73.040;2022-09-27T06:51:34;94463.97;;;33.62;43.34
73332;BME280;61560;33.718;73.040;2022-09-27T06:54:01;94471.53;;;33.67;43.51
73332;BME280;61560;33.718;73.040;2022-09-27T06:56:31;94461.72;;;33.61;42.17
73332;BME280;61560;33.718;73.040;2022-09-27T06:58:57;94457.38;;;33.60;42.64
73332;BME280;61560;33.718;73.040;2022-09-27T07:01:43;94464.72;;;33.63;43.42
73332;BME280;61560;33.718;73.040;2022-09-27T07:04:28;94452.66;;;33.47;44.28
73332;BME280;61560;33.718;73.040;2022-09-27T07:07:21;94445.06;;;33.42;44.37
73332;BME280;61560;33.718;73.040;2022-09-27T07:09:48;94436.00;;;33.36;44.86
73332;BME280;61560;33.718;73.040;2022-09-27T07:12:16;94437.94;;;33.26;44.96
73332;BME280;61560;33.718;73.040;2022-09-27T07:14:43;94440.94;;;33.28;44.94
73332;BME280;61560;33.718;73.040;2022-09-27T07:17:13;94438.28;;;33.30;44.83
73332;BME280;61560;33.718;73.040;2022-09-27T07:19:48;94437.34;;;33.35;44.83
73332;BME280;61560;33.718;73.040;2022-09-27T07:22:15;94430.69;;;33.40;44.62
73332;BME280;61560;33.718;73.040;2022-09-27T07:24:46;94424.81;;;33.53;44.56
73332;BME280;61560;33.718;73.040;2022-09-27T07:27:14;94419.13;;;33.53;44.35
73332;BME280;61560;33.718;73.040;2022-09-27T07:29:41;94413.28;;;33.51;43.78
73332;BME280;61560;33.718;73.040;2022-09-27T07:32:08;94408.53;;;33.54;44.58
73332;BME280;61560;33.718;73.040;2022-09-27T07:34:36;94405.25;;;33.65;44.18
73332;BME280;61560;33.718;73.040;2022-09-27T07:37:03;94405.22;;;33.72;43.77
73332;BME280;61560;33.718;73.040;2022-09-27T07:39:34;94405.59;;;33.76;43.73
73332;BME280;61560;33.718;73.040;2022-09-27T07:42:01;94404.06;;;33.75;44.32
73332;BME280;61560;33.718;73.040;2022-09-27T07:44:28;94391.81;;;33.65;44.09
73332;BME280;61560;33.718;73.040;2022-09-27T07:47:18;94393.88;;;33.65;43.11
73332;BME280;61560;33.718;73.040;2022-09-27T07:50:20;94392.03;;;33.60;42.17
73332;BME280;61560;33.718;73.040;2022-09-27T07:52:54;94376.31;;;33.59;42.74
73332;BME280;61560;33.718;73.040;2022-09-27T07:55:34;94380.50;;;33.58;44.30
73332;BME280;61560;33.718;73.040;2022-09-27T07:58:10;94375.19;;;33.47;43.06
73332;BME280;61560;33.718;73.040;2022-09-27T08:01:03;94365.38;;;33.40;43.40
73332;BME280;61560;33.718;73.040;2022-09-27T08:03:31;94362.34;;;33.38;44.11
73332;BME280;61560;33.718;73.040;2022-09-27T08:06:01;94357.84;;;33.28;44.58
73332;BME280;61560;33.718;73.040;2022-09-27T08:08:30;94360.53;;;33.18;45.31
73332;BME280;61560;33.718;73.040;2022-09-27T08:10:58;94353.94;;;33.08;45.71
73332;BME280;61560;33.718;73.040;2022-09-27T08:13:26;94354.72;;;33.09;45.76
73332;BME280;61560;33.718;73.040;2022-09-27T08:15:52;94340.13;;;32.97;45.91
73332;BME280;61560;33.718;73.040;2022-09-27T08:18:24;94339.97;;;32.87;45.18
73332;BME280;61560;33.718;73.040;2022-09-27T08:20:56;94338.69;;;32.58;45.64
73332;BME280;61560;33.718;73.040;2022-09-27T08:23:49;94328.88;;;32.59;45.51
73332;BME280;61560;33.718;73.040;2022-09-27T08:26:22;94319.97;;;32.63;45.29
73332;BME280;61560;33.718;73.040;2022-09-27T08:29:04;94325.84;;;32.65;45.41
73332;BME280;61560;33.718;73.040;2022-09-27T08:31:37;94321.28;;;32.69;45.98
73332;BME280;61560;33.718;73.040;2022-09-27T08:34:04;94310.09;;;32.79;45.85
73332;BME280;61560;33.718;73.040;2022-09-27T08:36:31;94311.63;;;32.80;45.58
73332;BME280;61560;33.718;73.040;2022-09-27T08:39:03;94308.63;;;32.78;45.31
73332;BME280;61560;33.718;73.040;2022-09-27T08:50:30;94282.47;;;32.87;46.27
73332;BME280;61560;33.718;73.040;2022-09-27T08:53:26;94287.56;;;32.96;46.11
73332;BME280;61560;33.718;73.040;2022-09-27T08:55:58;94279.03;;;32.96;45.59
73332;BME280;61560;33.718;73.040;2022-09-27T08:58:38;94278.31;;;32.88;45.35
73332;BME280;61560;33.718;73.040;2022-09-27T09:01:15;94273.56;;;32.90;45.25
73332;BME280;61560;33.718;73.040;2022-09-27T09:04:11;94275.84;;;32.92;45.02
73332;BME280;61560;33.718;73.040;2022-09-27T09:09:37;94264.13;;;32.88;44.63
73332;BME280;61560;33.718;73.040;2022-09-27T09:27:15;94243.44;;;32.55;44.70
73332;BME280;61560;33.718;73.040;2022-09-27T09:35:46;94238.63;;;32.73;45.31
73332;BME280;61560;33.718;73.040;2022-09-27T09:38:26;94239.03;;;32.69;45.26
73332;BME280;61560;33.718;73.040;2022-09-27T09:41:18;94237.31;;;32.74;45.36
73332;BME280;61560;33.718;73.040;2022-09-27T09:43:50;94236.38;;;32.71;45.30
73332;BME280;61560;33.718;73.040;2022-09-27T09:46:45;94237.31;;;32.74;45.38
73332;BME280;61560;33.718;73.040;2022-09-27T09:49:36;94237.69;;;32.70;45.97
73332;BME280;61560;33.718;73.040;2022-09-27T09:52:14;94233.72;;;32.66;45.67
73332;BME280;61560;33.718;73.040;2022-09-27T09:54:47;94233.59;;;32.56;46.00
73332;BME280;61560;33.718;73.040;2022-09-27T09:57:24;94228.69;;;32.57;46.04
73332;BME280;61560;33.718;73.040;2022-09-27T10:00:00;94229.81;;;32.54;44.83
73332;BME280;61560;33.718;73.040;2022-09-27T10:02:35;94225.28;;;32.51;45.57
73332;BME280;61560;33.718;73.040;2022-09-27T10:05:14;94226.06;;;32.51;45.43
73332;BME280;61560;33.718;73.040;2022-09-27T10:07:41;94214.53;;;32.49;45.43
73332;BME280;61560;33.718;73.040;2022-09-27T10:10:13;94220.19;;;32.49;45.70
73332;BME280;61560;33.718;73.040;2022-09-27T10:13:02;94205.81;;;32.40;46.52
73332;BME280;61560;33.718;73.040;2022-09-27T10:15:34;94216.19;;;32.37;45.62
73332;BME280;61560;33.718;73.040;2022-09-27T10:18:03;94206.03;;;32.26;45.67
73332;BME280;61560;33.718;73.040;2022-09-27T10:23:16;94206.03;;;32.26;46.48
73332;BME280;61560;33.718;73.040;2022-09-27T10:26:04;94199.59;;;32.18;46.06
73332;BME280;61560;33.718;73.040;2022-09-27T10:28:44;94204.53;;;32.18;46.34
73332;BME280;61560;33.718;73.040;2022-09-27T10:31:18;94200.56;;;32.21;46.28
73332;BME280;61560;33.718;73.040;2022-09-27T10:34:27;94207.72;;;32.29;45.75
73332;BME280;61560;33.718;73.040;2022-09-27T10:37:13;94196.38;;;32.29;46.21
73332;BME280;61560;33.718;73.040;2022-09-27T10:39:58;94190.56;;;32.20;45.78
73332;BME280;61560;33.718;73.040;2022-09-27T10:42:36;94193.75;;;32.16;46.22
73332;BME280;61560;33.718;73.040;2022-09-27T10:47:56;94189.63;;;32.10;46.15
73332;BME280;61560;33.718;73.040;2022-09-27T10:50:32;94198.31;;;32.04;46.44
73332;BME280;61560;33.718;73.040;2022-09-27T10:53:14;94193.03;;;32.01;46.34
73332;BME280;61560;33.718;73.040;2022-09-27T10:55:47;94190.97;;;31.94;46.79
73332;BME280;61560;33.718;73.040;2022-09-27T10:58:25;94193.06;;;31.93;46.95
73332;BME280;61560;33.718;73.040;2022-09-27T11:01:02;94196.41;;;31.92;46.54
73332;BME280;61560;33.718;73.040;2022-09-27T11:03:44;94197.16;;;31.92;46.91
73332;BME280;61560;33.718;73.040;2022-09-27T11:09:08;94188.50;;;31.83;46.40
73332;BME280;61560;33.718;73.040;2022-09-27T11:11:37;94185.47;;;31.81;46.70
73332;BME280;61560;33.718;73.040;2022-09-27T11:14:17;94195.28;;;31.80;47.14
73332;BME280;61560;33.718;73.040;2022-09-27T11:19:48;94194.19;;;31.75;47.37
73332;BME280;61560;33.718;73.040;2022-09-27T11:28:24;94193.03;;;31.63;47.95
73332;BME280;61560;33.718;73.040;2022-09-27T11:31:00;94199.06;;;31.60;48.06
73332;BME280;61560;33.718;73.040;2022-09-27T11:39:04;94200.00;;;31.47;48.14
73332;BME280;61560;33.718;73.040;2022-09-27T11:41:41;94205.09;;;31.41;48.32
73332;BME280;61560;33.718;73.040;2022-09-27T11:52:34;94208.22;;;31.15;49.00
73332;BME280;61560;33.718;73.040;2022-09-27T11:58:11;94203.84;;;30.99;49.94
73332;BME280;61560;33.718;73.040;2022-09-27T12:01:44;94214.00;;;30.87;51.07
73332;BME280;61560;33.718;73.040;2022-09-27T12:09:13;94206.38;;;30.74;50.95
73332;BME280;61560;33.718;73.040;2022-09-27T12:16:46;94218.78;;;30.63;51.98
73332;BME280;61560;33.718;73.040;2022-09-27T12:19:22;94220.84;;;30.63;52.71
73332;BME280;61560;33.718;73.040;2022-09-27T12:22:06;94217.06;;;30.60;53.04
73332;BME280;61560;33.718;73.040;2022-09-27T12:24:41;94217.41;;;30.49;53.83
73332;BME280;61560;33.718;73.040;2022-09-27T12:27:42;94226.75;;;30.37;54.77
73332;BME280;61560;33.718;73.040;2022-09-27T12:30:18;94221.78;;;30.30;55.46
73332;BME280;61560;33.718;73.040;2022-09-27T12:35:50;94225.06;;;30.13;56.23
73332;BME280;61560;33.718;73.040;2022-09-27T12:38:41;94227.84;;;30.06;57.00
73332;BME280;61560;33.718;73.040;2022-09-27T12:41:13;94228.16;;;29.95;57.32
73332;BME280;61560;33.718;73.040;2022-09-27T12:43:58;94220.72;;;29.84;57.27
73332;BME280;61560;33.718;73.040;2022-09-27T12:46:43;94225.97;;;29.80;57.54
73332;BME280;61560;33.718;73.040;2022-09-27T12:49:46;94225.88;;;29.72;57.58
73332;BME280;61560;33.718;73.040;2022-09-27T12:52:22;94227.13;;;29.64;57.79
73332;BME280;61560;33.718;73.040;2022-09-27T14:02:28;94269.84;;;28.01;61.81
73332;BME280;61560;33.718;73.040;2022-09-27T14:05:00;94276.66;;;28.06;61.85
73332;BME280;61560;33.718;73.040;2022-09-27T14:07:40;94278.19;;;28.07;61.90
73332;BME280;61560;33.718;73.040;2022-09-27T14:10:13;94282.53;;;28.08;62.00
73332;BME280;61560;33.718;73.040;2022-09-27T14:12:44;94275.91;;;28.05;62.35
73332;BME280;61560;33.718;73.040;2022-09-27T14:15:35;94290.53;;;28.04;62.51
73332;BME280;61560;33.718;73.040;2022-09-27T14:18:04;94286.19;;;28.03;62.10
73332;BME280;61560;33.718;73.040;2022-09-27T14:23:17;94287.91;;;28.06;62.03
73332;BME280;61560;33.718;73.040;2022-09-27T14:25:50;94304.28;;;28.07;61.82
73332;BME280;61560;33.718;73.040;2022-09-27T14:28:28;94302.25;;;28.08;61.60
73332;BME280;61560;33.718;73.040;2022-09-27T14:31:22;94302.25;;;28.08;61.65
73332;BME280;61560;33.718;73.040;2022-09-27T14:34:11;94305.06;;;28.08;61.91
73332;BME280;61560;33.718;73.040;2022-09-27T14:36:44;94300.16;;;28.08;61.79
73332;BME280;61560;33.718;73.040;2022-09-27T14:40:04;94314.69;;;28.12;61.59
73332;BME280;61560;33.718;73.040;2022-09-27T14:42:36;94311.44;;;28.08;61.50
73332;BME280;61560;33.718;73.040;2022-09-27T14:45:15;94317.59;;;28.07;61.88
73332;BME280;61560;33.718;73.040;2022-09-27T14:47:45;94306.13;;;28.05;62.08
73332;BME280;61560;33.718;73.040;2022-09-27T14:50:21;94320.22;;;28.05;62.20
73332;BME280;61560;33.718;73.040;2022-09-27T14:52:51;94322.03;;;28.02;61.95
73332;BME280;61560;33.718;73.040;2022-09-27T14:55:24;94323.88;;;28.00;61.84
73332;BME280;61560;33.718;73.040;2022-09-27T14:58:00;94322.38;;;27.99;61.91
73332;BME280;61560;33.718;73.040;2022-09-27T15:00:31;94318.78;;;27.98;61.46
73332;BME280;61560;33.718;73.040;2022-09-27T15:03:05;94310.97;;;27.91;61.82
73332;BME280;61560;33.718;73.040;2022-09-27T15:05:35;94326.53;;;27.92;62.58
73332;BME280;61560;33.718;73.040;2022-09-27T15:08:06;94324.50;;;27.93;62.65
73332;BME280;61560;33.718;73.040;2022-09-27T15:10:37;94326.31;;;27.90;62.60
73332;BME280;61560;33.718;73.040;2022-09-27T15:13:04;94324.81;;;27.89;62.53
73332;BME280;61560;33.718;73.040;2022-09-27T15:15:35;94323.06;;;27.86;62.47
73332;BME280;61560;33.718;73.040;2022-09-27T15:18:43;94326.63;;;27.87;62.21
73332;BME280;61560;33.718;73.040;2022-09-27T15:21:12;94330.00;;;27.85;62.05
73332;BME280;61560;33.718;73.040;2022-09-27T15:23:42;94332.59;;;27.83;61.99
73332;BME280;61560;33.718;73.040;2022-09-27T15:26:23;94330.63;;;27.78;61.79
73332;BME280;61560;33.718;73.040;2022-09-27T15:28:55;94333.97;;;27.77;61.82
73332;BME280;61560;33.718;73.040;2022-09-27T15:31:29;94324.75;;;27.76;61.53
73332;BME280;61560;33.718;73.040;2022-09-27T15:33:57;94324.75;;;27.76;61.18
73332;BME280;61560;33.718;73.040;2022-09-27T15:36:56;94335.25;;;27.76;61.85
73332;BME280;61560;33.718;73.040;2022-09-27T15:39:36;94323.00;;;27.73;62.06
73332;BME280;61560;33.718;73.040;2022-09-27T15:42:07;94327.13;;;27.72;62.10
73332;BME280;61560;33.718;73.040;2022-09-27T15:44:54;94331.22;;;27.71;62.29
73332;BME280;61560;33.718;73.040;2022-09-27T15:52:43;94335.22;;;27.63;62.44
73332;BME280;61560;33.718;73.040;2022-09-27T15:55:13;94337.50;;;27.64;62.35
73332;BME280;61560;33.718;73.040;2022-09-27T15:57:43;94337.50;;;27.64;62.33
73332;BME280;61560;33.718;73.040;2022-09-27T16:00:15;94347.78;;;27.62;62.52
73332;BME280;61560;33.718;73.040;2022-09-27T16:02:43;94334.78;;;27.59;62.39
73332;BME280;61560;33.718;73.040;2022-09-27T16:05:11;94334.25;;;27.60;62.27
73332;BME280;61560;33.718;73.040;2022-09-27T16:07:38;94344.19;;;27.61;62.00
73332;BME280;61560;33.718;73.040;2022-09-27T16:10:15;94347.53;;;27.60;62.02
73332;BME280;61560;33.718;73.040;2022-09-27T16:12:44;94344.94;;;27.62;61.46
73332;BME280;61560;33.718;73.040;2022-09-27T16:15:11;94349.38;;;27.57;61.60
73332;BME280;61560;33.718;73.040;2022-09-27T16:17:39;94350.44;;;27.54;62.07
73332;BME280;61560;33.718;73.040;2022-09-27T16:20:19;94350.44;;;27.54;62.02
73332;BME280;61560;33.718;73.040;2022-09-27T16:22:48;94347.41;;;27.52;62.21
73332;BME280;61560;33.718;73.040;2022-09-27T16:25:15;94342.53;;;27.52;62.13
73332;BME280;61560;33.718;73.040;2022-09-27T16:27:42;94340.25;;;27.51;62.50
73332;BME280;61560;33.718;73.040;2022-09-27T16:30:09;94340.25;;;27.51;62.45
73332;BME280;61560;33.718;73.040;2022-09-27T16:32:44;94342.06;;;27.48;62.33
73332;BME280;61560;33.718;73.040;2022-09-27T16:35:12;94341.84;;;27.46;62.68
73332;BME280;61560;33.718;73.040;2022-09-27T16:37:40;94336.78;;;27.45;62.34
73332;BME280;61560;33.718;73.040;2022-09-27T16:40:08;94333.50;;;27.41;62.39
73332;BME280;61560;33.718;73.040;2022-09-27T16:42:36;94333.50;;;27.41;62.33
73332;BME280;61560;33.718;73.040;2022-09-27T16:45:04;94329.94;;;27.40;62.27
73332;BME280;61560;33.718;73.040;2022-09-27T16:47:31;94334.59;;;27.38;62.35
73332;BME280;61560;33.718;73.040;2022-09-27T16:49:59;94340.00;;;27.36;62.69
73332;BME280;61560;33.718;73.040;2022-09-27T16:52:44;94341.78;;;27.33;61.98
73332;BME280;61560;33.718;73.040;2022-09-27T16:55:17;94339.25;;;27.30;61.78
73332;BME280;61560;33.718;73.040;2022-09-27T16:57:49;94337.53;;;27.27;62.45
73332;BME280;61560;33.718;73.040;2022-09-27T17:00:17;94329.69;;;27.20;62.52
73332;BME280;61560;33.718;73.040;2022-09-27T17:02:45;94331.31;;;27.15;63.17
73332;BME280;61560;33.718;73.040;2022-09-27T17:05:14;94332.34;;;27.12;63.22
73332;BME280;61560;33.718;73.040;2022-09-27T17:07:41;94336.75;;;27.08;63.44
73332;BME280;61560;33.718;73.040;2022-09-27T17:10:09;94340.72;;;26.99;64.18
73332;BME280;61560;33.718;73.040;2022-09-27T17:12:35;94339.50;;;26.95;64.42
73332;BME280;61560;33.718;73.040;2022-09-27T17:15:02;94347.19;;;26.94;64.63
73332;BME280;61560;33.718;73.040;2022-09-27T17:17:29;94337.91;;;26.99;64.90
73332;BME280;61560;33.718;73.040;2022-09-27T17:19:56;94352.72;;;27.00;64.82
73332;BME280;61560;33.718;73.040;2022-09-27T17:22:22;94353.56;;;26.95;65.65
73332;BME280;61560;33.718;73.040;2022-09-27T17:24:49;94353.34;;;26.93;65.70
73332;BME280;61560;33.718;73.040;2022-09-27T17:27:18;94359.25;;;26.89;65.77
73332;BME280;61560;33.718;73.040;2022-09-27T17:29:47;94360.78;;;26.90;66.05
73332;BME280;61560;33.718;73.040;2022-09-27T17:32:14;94356.66;;;26.91;66.64
73332;BME280;61560;33.718;73.040;2022-09-27T17:34:41;94358.19;;;26.92;66.61
73332;BME280;61560;33.718;73.040;2022-09-27T17:37:10;94361.22;;;26.94;66.23
73332;BME280;61560;33.718;73.040;2022-09-27T17:39:37;94353.84;;;26.91;66.28
73332;BME280;61560;33.718;73.040;2022-09-27T17:42:03;94351.81;;;26.92;66.43
73332;BME280;61560;33.718;73.040;2022-09-27T17:44:30;94353.84;;;26.91;66.09
73332;BME280;61560;33.718;73.040;2022-09-27T17:46:56;94353.63;;;26.89;65.63
73332;BME280;61560;33.718;73.040;2022-09-27T17:49:42;94359.78;;;26.88;65.67
73332;BME280;61560;33.718;73.040;2022-09-27T17:52:27;94345.50;;;26.86;65.32
73332;BME280;61560;33.718;73.040;2022-09-27T17:54:55;94343.44;;;26.86;65.23